Time;durP1;ratioP1;P1;durP2;ratioP2;P2;SDS_P1;SDS_P2;PMS_P1;PMS_P2;Temp;Humidity;BMP_temperature;BMP_pressure;BME280_temperature;BME280_humidity;BME280_pressure;Samples;Min_cycle;Max_cycle;Signal;HPM_P1;HPM_P2
2023/01/28 00:01:18;;;;;;;9.93;9.00;;;3.70;99.90;;;;;;4882824;29;20037;-78
2023/01/28 00:03:44;;;;;;;9.60;8.63;;;3.70;99.90;;;;;;4878162;29;20045;-79
2023/01/28 00:06:13;;;;;;;9.02;8.10;;;3.70;99.90;;;;;;4866351;29;20030;-79
2023/01/28 00:08:39;;;;;;;9.80;8.85;;;3.70;99.90;;;;;;4883091;29;20465;-79
2023/01/28 00:11:07;;;;;;;11.07;8.10;;;3.70;99.90;;;;;;4882274;29;20041;-80
2023/01/28 00:13:34;;;;;;;8.98;8.18;;;3.60;99.90;;;;;;4880907;29;20029;-79
2023/01/28 00:16:03;;;;;;;9.05;8.13;;;3.60;99.90;;;;;;4864852;29;20394;-79
2023/01/28 00:18:31;;;;;;;13.18;9.15;;;3.60;99.90;;;;;;4880234;29;20061;-80
2023/01/28 00:21:07;;;;;;;9.80;8.77;;;3.60;99.90;;;;;;4869342;29;20037;-80
2023/01/28 00:23:35;;;;;;;12.00;10.80;;;3.60;99.90;;;;;;4868455;29;20235;-80
2023/01/28 00:26:07;;;;;;;9.50;8.55;;;3.60;99.90;;;;;;4871877;29;20030;-79
2023/01/28 00:28:33;;;;;;;11.23;9.68;;;3.60;99.90;;;;;;4863820;29;20041;-80
2023/01/28 00:31:24;;;;;;;11.77;9.52;;;3.50;99.90;;;;;;4845254;29;20029;-79
2023/01/28 00:33:50;;;;;;;10.00;8.98;;;3.50;99.90;;;;;;4845857;29;20038;-80
2023/01/28 00:36:17;;;;;;;12.98;10.50;;;3.50;99.90;;;;;;4870636;29;20029;-79
2023/01/28 00:38:52;;;;;;;11.65;10.55;;;3.40;99.90;;;;;;4856678;29;20038;-79
2023/01/28 00:41:20;;;;;;;8.60;7.78;;;3.50;99.90;;;;;;4870839;29;20029;-80
2023/01/28 00:43:47;;;;;;;10.52;9.52;;;3.50;99.90;;;;;;4865247;29;20037;-79
2023/01/28 00:46:13;;;;;;;8.70;7.95;;;3.50;99.90;;;;;;4850125;29;20128;-79
2023/01/28 00:48:40;;;;;;;10.02;8.98;;;3.40;99.90;;;;;;4870885;29;20053;-80
2023/01/28 00:51:07;;;;;;;11.02;8.65;;;3.40;99.90;;;;;;4872682;29;20046;-80
2023/01/28 00:53:35;;;;;;;9.93;8.95;;;3.40;99.90;;;;;;4880195;29;20045;-79
2023/01/28 00:56:01;;;;;;;10.48;9.07;;;3.50;99.90;;;;;;4872611;29;20093;-79
2023/01/28 00:58:27;;;;;;;12.00;9.40;;;3.40;99.90;;;;;;4883731;29;20034;-79
2023/01/28 01:00:53;;;;;;;9.85;8.63;;;3.40;99.90;;;;;;4881750;29;20108;-79
2023/01/28 01:03:19;;;;;;;9.35;8.45;;;3.40;99.90;;;;;;4882011;29;20037;-80
2023/01/28 01:05:45;;;;;;;10.10;9.18;;;3.50;99.90;;;;;;4883712;29;20110;-80
2023/01/28 01:08:11;;;;;;;10.60;9.48;;;3.40;99.90;;;;;;4880580;29;20046;-79
2023/01/28 01:10:38;;;;;;;7.75;7.05;;;3.40;99.90;;;;;;4886212;29;20052;-80
2023/01/28 01:13:06;;;;;;;10.15;9.18;;;3.30;99.90;;;;;;4899775;29;20033;-80
2023/01/28 01:15:32;;;;;;;10.63;9.38;;;3.40;99.90;;;;;;4902090;29;20064;-79
2023/01/28 01:17:58;;;;;;;9.18;8.27;;;3.30;99.90;;;;;;4900105;29;20025;-80
2023/01/28 01:20:32;;;;;;;10.25;8.48;;;3.30;99.90;;;;;;4884908;29;20029;-79
2023/01/28 01:22:57;;;;;;;8.98;8.07;;;3.30;99.90;;;;;;4886139;29;20089;-78
2023/01/28 01:25:25;;;;;;;9.45;8.40;;;3.30;99.90;;;;;;4851467;29;20112;-79
2023/01/28 01:27:51;;;;;;;10.32;8.85;;;3.30;99.90;;;;;;4861541;29;20387;-79
2023/01/28 01:30:17;;;;;;;10.82;8.95;;;3.30;99.90;;;;;;4861408;29;20030;-79
2023/01/28 01:32:42;;;;;;;10.40;9.27;;;3.30;99.90;;;;;;4858761;29;20068;-79
2023/01/28 01:35:09;;;;;;;9.48;8.00;;;3.30;99.90;;;;;;4879348;29;20042;-80
2023/01/28 01:37:38;;;;;;;9.40;8.50;;;3.20;99.90;;;;;;4863969;29;20033;-79
2023/01/28 01:40:04;;;;;;;9.85;7.65;;;3.20;99.90;;;;;;4879095;29;20022;-78
2023/01/28 01:42:32;;;;;;;10.95;8.63;;;3.20;99.90;;;;;;4864432;29;20465;-79
2023/01/28 01:45:04;;;;;;;10.68;9.43;;;3.20;99.90;;;;;;4879855;29;20037;-80
2023/01/28 01:47:42;;;;;;;10.27;8.75;;;3.20;99.90;;;;;;4879752;29;20038;-78
2023/01/28 01:50:36;;;;;;;8.82;8.02;;;3.20;99.90;;;;;;4879245;29;20045;-78
2023/01/28 01:53:08;;;;;;;9.27;7.80;;;3.20;99.90;;;;;;4879541;29;20052;-78
2023/01/28 01:55:38;;;;;;;10.80;9.10;;;3.30;99.90;;;;;;4881601;29;20032;-80
2023/01/28 01:58:10;;;;;;;10.98;9.88;;;3.30;99.90;;;;;;4866001;29;20030;-80
2023/01/28 02:00:38;;;;;;;9.25;7.78;;;3.20;99.90;;;;;;4862196;29;20034;-80
2023/01/28 02:03:04;;;;;;;9.40;8.32;;;3.20;99.90;;;;;;4863071;29;20040;-80
2023/01/28 02:05:30;;;;;;;10.95;9.50;;;3.20;99.90;;;;;;4861547;29;20038;-80
2023/01/28 02:10:45;;;;;;;8.63;7.72;;;3.20;99.90;;;;;;4870920;29;20045;-79
2023/01/28 02:13:13;;;;;;;11.38;10.27;;;3.10;99.90;;;;;;4901624;29;20053;-80
2023/01/28 02:15:39;;;;;;;13.00;8.27;;;3.20;99.90;;;;;;4882024;29;20040;-80
2023/01/28 02:18:05;;;;;;;15.98;9.93;;;3.20;99.90;;;;;;4882142;29;20033;-80
2023/01/28 02:21:09;;;;;;;8.55;7.72;;;3.10;99.90;;;;;;4866072;29;20060;-80
2023/01/28 02:24:03;;;;;;;9.23;7.78;;;3.20;99.90;;;;;;4880821;29;20061;-80
2023/01/28 02:27:10;;;;;;;9.30;8.27;;;3.20;99.90;;;;;;4865322;29;20029;-79
2023/01/28 02:29:58;;;;;;;9.20;7.63;;;3.20;99.90;;;;;;4880635;29;20407;-80
2023/01/28 02:32:35;;;;;;;11.55;8.55;;;3.20;99.90;;;;;;4880187;29;20086;-79
2023/01/28 02:35:13;;;;;;;10.73;9.35;;;3.20;99.90;;;;;;4880231;29;20035;-79
2023/01/28 02:37:57;;;;;;;11.52;9.88;;;3.10;99.90;;;;;;4879842;29;20037;-80
2023/01/28 02:40:29;;;;;;;13.48;10.38;;;3.10;99.90;;;;;;4879281;29;20044;-79
2023/01/28 02:42:56;;;;;;;9.25;8.35;;;3.10;99.90;;;;;;4879305;29;20044;-79
2023/01/28 02:47:56;;;;;;;11.20;9.80;;;3.10;99.90;;;;;;4861665;29;20037;-79
2023/01/28 02:48:14;;;;;;;8.68;7.80;;;3.10;99.90;;;;;;4861110;29;20046;-79
2023/01/28 02:51:35;;;;;;;9.77;7.93;;;3.10;99.90;;;;;;4846762;29;20038;-79
2023/01/28 02:54:13;;;;;;;10.50;8.82;;;3.10;99.90;;;;;;4862805;29;20037;-79
2023/01/28 02:57:13;;;;;;;10.93;8.68;;;3.00;99.90;;;;;;4861128;29;20045;-79
2023/01/28 03:00:01;;;;;;;10.25;8.43;;;3.00;99.90;;;;;;4865295;29;20038;-79
2023/01/28 03:02:37;;;;;;;9.57;8.65;;;3.00;99.90;;;;;;4861088;29;20034;-79
2023/01/28 03:05:21;;;;;;;8.68;7.43;;;3.10;99.90;;;;;;4863254;29;20062;-79
2023/01/28 03:07:48;;;;;;;9.05;7.47;;;3.00;99.90;;;;;;4845522;29;20024;-79
2023/01/28 03:10:18;;;;;;;12.88;10.10;;;3.10;99.90;;;;;;4844859;29;20030;-78
2023/01/28 03:38:47;;;;;;;11.48;9.38;;;2.90;99.90;;;;;;4877190;29;20048;-79
2023/01/28 03:41:21;;;;;;;10.10;9.13;;;3.00;99.90;;;;;;4877807;29;20030;-79
2023/01/28 03:43:48;;;;;;;10.88;9.35;;;3.00;99.90;;;;;;4862517;29;20048;-79
2023/01/28 03:46:13;;;;;;;10.10;9.10;;;3.00;99.90;;;;;;4877766;29;20029;-80
2023/01/28 03:48:39;;;;;;;11.60;9.50;;;3.00;99.90;;;;;;4862230;29;20033;-79
2023/01/28 03:51:07;;;;;;;10.30;8.55;;;3.00;99.90;;;;;;4878894;29;20033;-79
2023/01/28 03:53:33;;;;;;;11.88;9.73;;;2.90;99.90;;;;;;4879522;29;20037;-79
2023/01/28 03:55:59;;;;;;;8.43;7.53;;;2.90;99.90;;;;;;4878168;29;20029;-79
2023/01/28 03:58:39;;;;;;;10.57;9.23;;;2.90;99.90;;;;;;4877873;29;20029;-78
2023/01/28 04:01:05;;;;;;;11.52;10.25;;;2.80;99.90;;;;;;4878989;29;20024;-79
2023/01/28 04:03:33;;;;;;;10.05;9.05;;;2.80;99.90;;;;;;4863329;29;20057;-78
2023/01/28 04:06:05;;;;;;;12.15;9.82;;;2.80;99.90;;;;;;4863568;29;20045;-79
2023/01/28 04:08:52;;;;;;;11.15;9.57;;;2.80;99.90;;;;;;4883219;29;20045;-79
2023/01/28 04:11:50;;;;;;;11.52;9.52;;;2.80;99.90;;;;;;4894618;29;20041;-79
2023/01/28 04:14:23;;;;;;;10.45;9.35;;;2.90;99.90;;;;;;4895132;29;20061;-78
2023/01/28 04:17:09;;;;;;;10.65;9.65;;;2.90;99.90;;;;;;4879218;29;20114;-79
2023/01/28 04:19:37;;;;;;;10.95;9.75;;;2.90;99.90;;;;;;4875500;29;20038;-79
2023/01/28 04:22:07;;;;;;;9.85;8.85;;;2.80;99.90;;;;;;4863095;29;20474;-79
2023/01/28 04:24:33;;;;;;;12.65;10.48;;;2.80;99.90;;;;;;4897637;29;20071;-79
2023/01/28 04:26:59;;;;;;;11.95;10.73;;;2.80;99.90;;;;;;4897562;29;20552;-78
2023/01/28 04:29:25;;;;;;;11.50;10.30;;;2.80;99.90;;;;;;4866254;29;20052;-78
2023/01/28 04:31:53;;;;;;;13.18;11.32;;;2.90;99.90;;;;;;4895227;29;20076;-79
2023/01/28 04:34:38;;;;;;;13.98;10.57;;;2.80;99.90;;;;;;4895855;29;20084;-78
2023/01/28 04:37:26;;;;;;;11.18;8.90;;;2.80;99.90;;;;;;4894945;29;20037;-78
2023/01/28 04:40:20;;;;;;;12.50;10.85;;;2.70;99.90;;;;;;4882578;29;20055;-79
2023/01/28 04:42:55;;;;;;;11.95;10.70;;;2.70;99.90;;;;;;4895015;29;20048;-79
2023/01/28 04:45:38;;;;;;;12.38;10.07;;;2.60;99.90;;;;;;4895315;29;20105;-80
2023/01/28 04:48:39;;;;;;;12.57;9.95;;;2.60;99.90;;;;;;4898453;29;20057;-79
2023/01/28 04:51:19;;;;;;;12.85;10.48;;;2.60;99.90;;;;;;4882961;29;20528;-79
2023/01/28 04:54:06;;;;;;;11.05;9.98;;;2.60;99.90;;;;;;4882785;29;20033;-79
2023/01/28 04:56:33;;;;;;;13.93;10.63;;;2.60;99.90;;;;;;4878564;29;20042;-79
2023/01/28 04:59:01;;;;;;;12.20;10.23;;;2.60;99.90;;;;;;4878906;29;20025;-79
2023/01/28 05:01:29;;;;;;;10.88;9.77;;;2.60;99.90;;;;;;4878943;29;20050;-79
2023/01/28 05:03:55;;;;;;;13.20;11.68;;;2.60;99.90;;;;;;4877375;29;20054;-79
2023/01/28 05:06:24;;;;;;;10.35;8.60;;;2.70;99.90;;;;;;4863050;29;20061;-79
2023/01/28 05:08:53;;;;;;;12.48;11.18;;;2.60;99.90;;;;;;4875148;29;20037;-79
2023/01/28 05:11:19;;;;;;;11.32;10.07;;;2.60;99.90;;;;;;4878633;29;20120;-78
2023/01/28 05:13:49;;;;;;;15.18;12.43;;;2.60;99.90;;;;;;4880251;29;20116;-79
2023/01/28 05:16:15;;;;;;;9.85;8.85;;;2.60;99.90;;;;;;4879786;29;20033;-78
2023/01/28 05:18:41;;;;;;;13.38;11.98;;;2.50;99.90;;;;;;4880501;29;20107;-79
2023/01/28 05:21:09;;;;;;;11.75;10.55;;;2.60;99.90;;;;;;4876485;29;20178;-78
2023/01/28 05:23:37;;;;;;;12.75;11.52;;;2.60;99.90;;;;;;4861406;29;20041;-79
2023/01/28 05:26:04;;;;;;;12.32;10.55;;;2.60;99.90;;;;;;4861203;29;20076;-79
2023/01/28 05:28:30;;;;;;;13.98;12.35;;;2.60;99.90;;;;;;4864430;29;20026;-79
2023/01/28 05:31:05;;;;;;;11.43;10.20;;;2.60;99.90;;;;;;4874138;29;20042;-78
2023/01/28 05:33:31;;;;;;;14.00;11.60;;;2.60;99.90;;;;;;4876437;29;20025;-79
2023/01/28 05:35:57;;;;;;;9.98;8.90;;;2.60;99.90;;;;;;4854609;29;20120;-79
2023/01/28 05:38:23;;;;;;;13.00;11.63;;;2.50;99.90;;;;;;4858594;29;20033;-79
2023/01/28 05:40:50;;;;;;;11.88;10.68;;;2.50;99.90;;;;;;4860740;29;20018;-79
2023/01/28 05:43:16;;;;;;;12.25;9.63;;;2.50;99.90;;;;;;4870459;29;20030;-79
2023/01/28 05:45:51;;;;;;;11.73;10.45;;;2.60;99.90;;;;;;4874965;29;20045;-80
2023/01/28 05:48:26;;;;;;;10.85;8.65;;;2.50;99.90;;;;;;4860595;29;20048;-79
2023/01/28 05:51:15;;;;;;;10.32;9.27;;;2.50;99.90;;;;;;4862465;29;20038;-79
2023/01/28 05:53:44;;;;;;;9.20;8.30;;;2.50;99.90;;;;;;4870474;29;20032;-79
2023/01/28 05:56:10;;;;;;;12.32;11.30;;;2.50;99.90;;;;;;4853791;29;20030;-79
2023/01/28 05:58:38;;;;;;;10.23;8.88;;;2.50;99.90;;;;;;4872957;29;20030;-79
2023/01/28 06:01:03;;;;;;;11.65;9.68;;;2.50;99.90;;;;;;4872070;29;20102;-79
2023/01/28 06:03:40;;;;;;;13.23;10.57;;;2.50;99.90;;;;;;4871934;29;20042;-79
2023/01/28 06:06:06;;;;;;;10.75;9.75;;;2.50;99.90;;;;;;4859590;29;20048;-79
2023/01/28 06:08:32;;;;;;;12.48;10.38;;;2.50;99.90;;;;;;4872990;29;20041;-79
2023/01/28 06:10:58;;;;;;;10.88;9.60;;;2.40;99.90;;;;;;4864108;29;20037;-80
2023/01/28 06:13:24;;;;;;;12.38;11.15;;;2.40;99.90;;;;;;4857668;29;20033;-79
2023/01/28 06:16:00;;;;;;;11.23;10.00;;;2.40;99.90;;;;;;4875155;29;20063;-79
2023/01/28 06:19:01;;;;;;;15.25;10.23;;;2.40;99.90;;;;;;4886443;29;20037;-79
2023/01/28 06:21:28;;;;;;;12.25;9.60;;;2.40;99.90;;;;;;4879028;29;20046;-79
2023/01/28 06:23:54;;;;;;;12.07;10.63;;;2.40;99.90;;;;;;4874449;29;20509;-79
2023/01/28 06:26:20;;;;;;;10.43;9.07;;;2.40;99.90;;;;;;4860432;29;20085;-79
2023/01/28 06:28:46;;;;;;;11.45;9.57;;;2.40;99.90;;;;;;4874513;29;20038;-79
2023/01/28 06:31:12;;;;;;;11.48;9.77;;;2.40;99.90;;;;;;4874784;29;20056;-80
2023/01/28 06:33:37;;;;;;;11.63;10.45;;;2.40;99.90;;;;;;4871614;29;20030;-79
2023/01/28 06:36:05;;;;;;;12.02;10.82;;;2.50;99.90;;;;;;4869010;29;20049;-78
2023/01/28 06:38:31;;;;;;;11.10;10.00;;;2.40;99.90;;;;;;4853107;29;20102;-79
2023/01/28 06:40:57;;;;;;;10.18;8.70;;;2.40;99.90;;;;;;4865327;29;20042;-79
2023/01/28 06:43:29;;;;;;;11.85;10.63;;;2.30;99.90;;;;;;4874374;29;20041;-79
2023/01/28 06:45:56;;;;;;;11.13;9.23;;;2.30;99.90;;;;;;4869594;29;20038;-79
2023/01/28 06:48:23;;;;;;;11.35;9.38;;;2.30;99.90;;;;;;4870108;29;20037;-79
2023/01/28 06:50:49;;;;;;;10.60;8.93;;;2.30;99.90;;;;;;4870239;29;20022;-79
2023/01/28 06:53:16;;;;;;;10.73;9.63;;;2.40;99.90;;;;;;4850205;29;20116;-80
2023/01/28 06:55:42;;;;;;;12.02;10.75;;;2.40;99.90;;;;;;4867279;29;20082;-78
2023/01/28 06:58:07;;;;;;;11.57;10.52;;;2.40;99.90;;;;;;4870686;29;20416;-79
2023/01/28 07:00:33;;;;;;;11.38;10.18;;;2.40;99.90;;;;;;4871778;29;20057;-79
2023/01/28 07:02:59;;;;;;;12.20;10.27;;;2.40;99.90;;;;;;4856329;29;20026;-78
2023/01/28 07:05:25;;;;;;;12.48;10.85;;;2.30;99.90;;;;;;4839664;29;20038;-79
2023/01/28 07:07:51;;;;;;;10.90;9.80;;;2.30;99.90;;;;;;4854986;29;20121;-80
2023/01/28 07:10:17;;;;;;;12.23;9.20;;;2.30;99.90;;;;;;4850238;29;20045;-79
2023/01/28 07:12:43;;;;;;;14.38;10.98;;;2.40;99.90;;;;;;4852995;29;20046;-79
2023/01/28 07:15:10;;;;;;;10.48;9.40;;;2.40;99.90;;;;;;4871875;29;20053;-79
2023/01/28 07:17:40;;;;;;;10.52;9.43;;;2.30;99.90;;;;;;4870405;29;20033;-79
2023/01/28 07:20:06;;;;;;;;;;;2.30;99.90;;;;;;4871992;29;20025;-79
2023/01/28 07:22:32;;;;;;;13.68;10.95;;;2.20;99.90;;;;;;4868593;29;19927;-79
2023/01/28 07:24:59;;;;;;;10.77;8.70;;;2.20;99.90;;;;;;4870248;29;20026;-79
2023/01/28 07:27:26;;;;;;;11.60;10.57;;;2.20;99.90;;;;;;4863711;29;20049;-80
2023/01/28 07:29:52;;;;;;;10.63;9.30;;;2.10;99.90;;;;;;4832894;29;20045;-79
2023/01/28 07:32:17;;;;;;;9.98;8.95;;;2.10;99.90;;;;;;4865439;29;20434;-80
2023/01/28 07:34:43;;;;;;;13.80;9.43;;;2.10;99.90;;;;;;4866795;29;20029;-80
2023/01/28 07:37:09;;;;;;;13.13;10.90;;;2.10;99.90;;;;;;4844431;29;20037;-80
2023/01/28 07:39:36;;;;;;;10.02;9.05;;;2.10;99.90;;;;;;4873298;29;20078;-79
2023/01/28 07:42:02;;;;;;;9.02;8.13;;;2.20;99.90;;;;;;4861260;29;20103;-80
2023/01/28 07:44:35;;;;;;;13.27;11.65;;;2.20;99.90;;;;;;4869907;29;20108;-79
2023/01/28 07:47:02;;;;;;;12.15;9.25;;;2.20;99.90;;;;;;4873288;29;20037;-79
2023/01/28 07:49:28;;;;;;;12.55;11.27;;;2.10;99.90;;;;;;4871664;29;20021;-79
2023/01/28 07:51:54;;;;;;;13.10;10.38;;;2.10;99.90;;;;;;4871902;29;20037;-79
2023/01/28 07:54:20;;;;;;;9.65;8.82;;;2.20;99.90;;;;;;4822055;29;20056;-79
2023/01/28 07:56:46;;;;;;;10.38;9.38;;;2.30;99.90;;;;;;4870330;29;20042;-80
2023/01/28 07:59:12;;;;;;;9.68;8.77;;;2.30;99.90;;;;;;4872405;29;20025;-79
2023/01/28 08:01:38;;;;;;;7.05;6.35;;;2.30;99.90;;;;;;4872438;29;20097;-79
2023/01/28 08:04:04;;;;;;;7.57;6.90;;;2.30;99.90;;;;;;4857417;29;20037;-80
2023/01/28 08:06:30;;;;;;;9.52;8.65;;;2.30;99.90;;;;;;4866139;29;20032;-80
2023/01/28 08:08:56;;;;;;;9.82;8.93;;;2.30;99.90;;;;;;4870351;29;20041;-80
2023/01/28 08:11:22;;;;;;;7.70;7.10;;;2.30;99.90;;;;;;4867272;29;20034;-80
2023/01/28 08:13:48;;;;;;;9.65;8.75;;;2.30;99.90;;;;;;4868351;29;20029;-80
2023/01/28 08:16:14;;;;;;;8.85;8.05;;;2.40;99.90;;;;;;4859781;29;20029;-80
2023/01/28 08:18:40;;;;;;;9.63;8.50;;;2.40;99.90;;;;;;4869780;29;20094;-80
2023/01/28 08:21:06;;;;;;;9.05;8.20;;;2.40;99.90;;;;;;4860530;29;20047;-80
2023/01/28 08:23:35;;;;;;;9.90;8.95;;;2.50;99.90;;;;;;4876505;29;20924;-81
2023/01/28 08:26:00;;;;;;;7.35;6.75;;;2.50;99.90;;;;;;4866888;29;20044;-80
2023/01/28 08:28:27;;;;;;;7.82;7.05;;;2.50;99.90;;;;;;4869551;29;20041;-80
2023/01/28 08:31:11;;;;;;;9.57;7.85;;;2.60;99.90;;;;;;4877250;29;20036;-78
2023/01/28 08:33:37;;;;;;;8.63;7.35;;;2.50;99.90;;;;;;4877865;29;20049;-79
2023/01/28 08:36:04;;;;;;;8.38;7.63;;;2.60;99.90;;;;;;4883217;29;20049;-79
2023/01/28 08:38:30;;;;;;;7.72;7.05;;;2.80;99.90;;;;;;4881711;29;20057;-78
2023/01/28 08:40:56;;;;;;;8.35;6.97;;;2.80;99.90;;;;;;4881343;29;20029;-79
2023/01/28 08:43:25;;;;;;;8.05;7.25;;;2.80;99.90;;;;;;4882401;29;20043;-80
2023/01/28 08:45:51;;;;;;;10.43;8.48;;;;;;;;;;4882097;29;20033;-79
2023/01/28 08:48:46;;;;;;;8.82;7.82;;;2.90;99.90;;;;;;4884248;29;20122;-80
2023/01/28 08:51:21;;;;;;;9.65;8.75;;;2.80;99.90;;;;;;4853800;29;20127;-80
2023/01/28 08:53:47;;;;;;;9.77;8.52;;;3.00;99.90;;;;;;4881543;29;20752;-81
2023/01/28 08:56:13;;;;;;;13.50;10.95;;;2.80;99.90;;;;;;4878325;29;20117;-78
2023/01/28 08:58:40;;;;;;;12.60;9.68;;;2.90;99.90;;;;;;4866553;29;20040;-79
2023/01/28 09:01:06;;;;;;;8.05;7.32;;;3.00;99.90;;;;;;4882350;29;20030;-79
2023/01/28 09:03:32;;;;;;;9.93;8.45;;;2.90;99.90;;;;;;4881980;29;20061;-79
2023/01/28 09:06:02;;;;;;;9.77;8.80;;;3.00;99.90;;;;;;4880976;29;20064;-79
2023/01/28 09:08:28;;;;;;;9.23;8.40;;;3.10;99.90;;;;;;4885464;29;20045;-79
2023/01/28 09:10:55;;;;;;;8.68;7.85;;;3.10;99.90;;;;;;4871922;29;20026;-79
2023/01/28 09:13:21;;;;;;;8.93;8.00;;;3.20;99.90;;;;;;4868455;29;20041;-79
2023/01/28 09:15:47;;;;;;;8.73;7.95;;;3.20;99.90;;;;;;4887877;29;20045;-79
2023/01/28 09:18:12;;;;;;;7.97;7.28;;;3.20;99.90;;;;;;4884138;29;20040;-79
2023/01/28 09:20:38;;;;;;;9.88;8.95;;;3.30;99.90;;;;;;4885591;29;20017;-79
2023/01/28 09:23:05;;;;;;;13.75;9.45;;;3.40;99.90;;;;;;4871708;29;20042;-80
2023/01/28 09:25:31;;;;;;;8.63;7.82;;;3.40;99.90;;;;;;4887950;29;20108;-81
2023/01/28 09:27:57;;;;;;;10.10;9.05;;;3.40;99.90;;;;;;4887621;29;20038;-79
2023/01/28 09:30:24;;;;;;;8.02;6.50;;;3.50;99.90;;;;;;4886971;29;20049;-79
2023/01/28 09:32:55;;;;;;;7.68;6.90;;;3.40;99.90;;;;;;4886769;29;20049;-79
2023/01/28 09:35:21;;;;;;;7.32;6.55;;;3.40;99.90;;;;;;4884724;29;20081;-79
2023/01/28 09:37:48;;;;;;;7.38;6.63;;;3.40;99.90;;;;;;4886236;29;20060;-79
2023/01/28 09:40:24;;;;;;;7.28;6.63;;;3.40;99.90;;;;;;4899829;29;20021;-79
2023/01/28 09:42:56;;;;;;;14.13;10.00;;;3.40;99.90;;;;;;4905815;29;20041;-79
2023/01/28 09:45:31;;;;;;;10.10;8.60;;;3.30;99.90;;;;;;4906443;29;20052;-79
2023/01/28 09:48:00;;;;;;;8.23;7.43;;;3.30;99.90;;;;;;4903053;29;20032;-79
2023/01/28 09:50:37;;;;;;;9.63;8.30;;;3.30;99.90;;;;;;4898044;29;20037;-79
2023/01/28 09:53:09;;;;;;;8.93;8.02;;;3.40;99.90;;;;;;4887658;29;20042;-79
2023/01/28 09:55:39;;;;;;;9.35;6.53;;;3.40;99.90;;;;;;4886766;29;20017;-80
2023/01/28 09:58:16;;;;;;;8.02;7.32;;;3.40;99.90;;;;;;4887502;29;20009;-79
2023/01/28 10:01:08;;;;;;;9.13;8.23;;;3.50;99.90;;;;;;4887423;29;20045;-78
2023/01/28 10:03:51;;;;;;;12.48;7.63;;;3.50;99.90;;;;;;4876588;29;20022;-79
2023/01/28 10:06:30;;;;;;;7.43;6.75;;;3.50;99.90;;;;;;4866939;29;20488;-80
2023/01/28 10:09:26;;;;;;;8.45;7.65;;;3.40;99.90;;;;;;4867834;29;20047;-80
2023/01/28 10:12:12;;;;;;;8.75;7.65;;;3.30;99.90;;;;;;4867423;29;20034;-79
2023/01/28 10:15:01;;;;;;;8.82;8.02;;;3.30;99.90;;;;;;4867371;29;20081;-80
2023/01/28 10:18:02;;;;;;;7.78;7.07;;;3.40;99.90;;;;;;4881840;29;20049;-80
2023/01/28 10:20:56;;;;;;;9.27;8.38;;;3.40;99.90;;;;;;4905740;29;20094;-80
2023/01/28 10:23:45;;;;;;;11.18;9.73;;;3.40;99.90;;;;;;4869313;29;20045;-80
2023/01/28 10:26:20;;;;;;;10.30;8.93;;;3.40;99.90;;;;;;4886158;29;20106;-81
2023/01/28 10:28:56;;;;;;;9.93;8.32;;;3.30;99.90;;;;;;4883413;29;20029;-79
2023/01/28 10:31:23;;;;;;;12.93;10.55;;;3.40;99.90;;;;;;4887132;29;20052;-78
2023/01/28 10:33:49;;;;;;;8.85;8.13;;;3.70;99.90;;;;;;4886723;29;20408;-80
2023/01/28 10:36:17;;;;;;;7.68;6.97;;;3.60;99.90;;;;;;4886269;29;20010;-80
2023/01/28 10:38:43;;;;;;;8.45;6.82;;;3.80;99.90;;;;;;4886241;29;20025;-78
2023/01/28 10:41:11;;;;;;;8.80;7.07;;;3.80;99.90;;;;;;4903258;29;20013;-80
2023/01/28 10:43:40;;;;;;;8.15;7.22;;;3.80;99.90;;;;;;4887433;29;20021;-79
2023/01/28 10:46:14;;;;;;;8.50;7.68;;;3.70;99.90;;;;;;4903404;29;20037;-79
2023/01/28 10:48:55;;;;;;;7.85;7.05;;;3.70;99.90;;;;;;4902138;29;20017;-80
2023/01/28 10:51:39;;;;;;;9.88;7.93;;;3.80;99.90;;;;;;4865507;29;20056;-80
2023/01/28 10:54:25;;;;;;;10.35;9.25;;;3.80;99.90;;;;;;4865350;29;20030;-80
2023/01/28 10:57:01;;;;;;;9.02;7.38;;;3.80;99.90;;;;;;4865122;29;20030;-80
2023/01/28 10:59:35;;;;;;;8.65;7.55;;;3.90;99.90;;;;;;4865420;29;20093;-80
2023/01/28 11:02:18;;;;;;;10.30;7.80;;;3.90;99.90;;;;;;4865586;29;20019;-80
2023/01/28 11:04:44;;;;;;;7.97;7.20;;;3.80;99.90;;;;;;4877590;29;20045;-80
2023/01/28 11:07:20;;;;;;;9.75;8.55;;;3.80;99.90;;;;;;4883769;29;20429;-80
2023/01/28 11:09:49;;;;;;;10.57;8.25;;;3.90;99.90;;;;;;4885982;29;20031;-78
2023/01/28 11:12:25;;;;;;;10.57;8.75;;;3.90;99.90;;;;;;4885201;29;20066;-80
2023/01/28 11:14:57;;;;;;;7.95;7.15;;;3.90;99.90;;;;;;4885741;29;20022;-80
2023/01/28 11:17:28;;;;;;;8.45;6.97;;;3.80;99.90;;;;;;4884911;29;20025;-79
2023/01/28 11:20:00;;;;;;;7.55;6.35;;;3.80;99.90;;;;;;4886179;29;20022;-79
2023/01/28 11:22:43;;;;;;;9.90;9.00;;;3.90;99.90;;;;;;4881727;29;20013;-79
2023/01/28 11:25:27;;;;;;;9.02;6.70;;;3.80;99.90;;;;;;4886373;29;20054;-79
2023/01/28 11:27:53;;;;;;;9.40;8.52;;;3.90;99.90;;;;;;4881883;29;20014;-79
2023/01/28 11:30:32;;;;;;;8.80;7.20;;;3.80;99.90;;;;;;4866239;29;20111;-79
2023/01/28 11:33:04;;;;;;;10.90;8.48;;;3.90;99.90;;;;;;4866299;29;20052;-79
2023/01/28 11:35:36;;;;;;;11.55;9.63;;;3.80;99.90;;;;;;4870528;29;20056;-80
2023/01/28 11:38:16;;;;;;;11.80;7.75;;;3.70;99.90;;;;;;4865504;29;20137;-79
2023/01/28 11:40:52;;;;;;;6.27;5.33;;;3.60;99.90;;;;;;4870893;29;20045;-80
2023/01/28 11:43:25;;;;;;;9.45;8.23;;;3.50;99.90;;;;;;4874636;29;20037;-80
2023/01/28 11:46:24;;;;;;;10.25;9.23;;;3.50;99.90;;;;;;4874144;29;20037;-77
2023/01/28 11:49:00;;;;;;;10.63;8.77;;;3.70;99.90;;;;;;4876799;29;20052;-78
2023/01/28 11:51:36;;;;;;;10.02;8.55;;;3.50;99.90;;;;;;4856988;29;20072;-78
2023/01/28 11:54:26;;;;;;;10.35;8.27;;;3.60;99.90;;;;;;4899516;29;20036;-77
2023/01/28 11:57:14;;;;;;;9.80;8.55;;;3.60;99.90;;;;;;4872318;29;20062;-77
2023/01/28 12:00:01;;;;;;;11.57;8.55;;;3.70;99.90;;;;;;4841766;29;20037;-77
2023/01/28 12:03:03;;;;;;;9.70;8.73;;;3.60;99.90;;;;;;4871690;29;20065;-80
2023/01/28 12:05:51;;;;;;;11.90;8.77;;;3.60;99.90;;;;;;4883274;29;20028;-79
2023/01/28 12:08:59;;;;;;;10.45;9.43;;;3.70;99.90;;;;;;4885930;29;20048;-80
2023/01/28 12:12:10;;;;;;;10.10;9.13;;;3.70;99.90;;;;;;4893371;29;20053;-79
2023/01/28 12:14:51;;;;;;;11.70;10.45;;;3.60;99.90;;;;;;4885015;29;20032;-80
2023/01/28 12:17:42;;;;;;;13.23;11.23;;;3.40;99.90;;;;;;4884662;29;20053;-81
2023/01/28 12:20:30;;;;;;;11.77;10.57;;;3.50;99.90;;;;;;4884477;29;20042;-80
2023/01/28 12:23:05;;;;;;;10.38;9.38;;;3.60;99.90;;;;;;4866511;29;20037;-77
2023/01/28 12:25:49;;;;;;;12.00;8.85;;;3.70;99.90;;;;;;4866446;29;20030;-80
2023/01/28 12:28:31;;;;;;;10.57;9.57;;;3.70;99.90;;;;;;4857957;29;20040;-80
2023/01/28 12:31:03;;;;;;;11.95;10.55;;;3.60;99.90;;;;;;4883395;29;20045;-80
2023/01/28 12:33:34;;;;;;;10.63;9.60;;;3.60;99.90;;;;;;4884907;29;20017;-79
2023/01/28 12:36:20;;;;;;;11.52;10.40;;;3.80;99.90;;;;;;4884595;29;20259;-80
2023/01/28 12:39:25;;;;;;;12.02;10.05;;;3.50;99.90;;;;;;4882059;29;20046;-80
2023/01/28 12:42:03;;;;;;;10.23;8.95;;;3.90;99.90;;;;;;4902717;29;20040;-80
2023/01/28 12:44:34;;;;;;;9.00;7.38;;;3.90;99.90;;;;;;4886334;29;20038;-80
2023/01/28 12:47:06;;;;;;;11.25;9.68;;;3.90;99.90;;;;;;4893278;29;20069;-80
2023/01/28 12:49:38;;;;;;;10.27;8.57;;;4.00;99.90;;;;;;4887004;29;20062;-80
2023/01/28 12:52:18;;;;;;;9.23;8.30;;;4.20;99.90;;;;;;4888559;29;20024;-79
2023/01/28 12:55:16;;;;;;;10.45;9.38;;;4.10;99.90;;;;;;4888361;29;20081;-79
2023/01/28 12:57:43;;;;;;;12.13;10.65;;;3.80;99.90;;;;;;4886215;29;20040;-80
2023/01/28 13:00:21;;;;;;;11.05;9.73;;;3.80;99.90;;;;;;4889147;29;20073;-80
